Terminal Aerodrome Forecast
Issued by NWS Detroit/Pontiac, MI

Home | Current Version | Previous Version | Text Only | Print | Product List | Glossary On
Versions: 1 2 3 4 5 6 7 8 9 10 11 12 13 14 15 16 17
102
FTUS43 KDTX 031138
TAFFNT
TAF
KFNT 031138Z 0312/0412 27009KT P6SM BKN025
     FM031900 25006KT P6SM OVC030
     FM040600 23005KT P6SM SCT030 OVC150=

USA.gov is the U.S. government's official web portal to all federal, state and local government web resources and services.